Time;durP1;ratioP1;P1;durP2;ratioP2;P2;SDS_P1;SDS_P2;PMS_P1;PMS_P2;Temp;Humidity;BMP_temperature;BMP_pressure;BME280_temperature;BME280_humidity;BME280_pressure;Samples;Min_cycle;Max_cycle;Signal;HPM_P1;HPM_P2
2024/03/03 00:00:24;;;;;;;6.47;5.88;;;5.10;60.80;;;;;;5037679;28;20396;-74
2024/03/03 00:03:08;;;;;;;7.20;5.65;;;5.00;60.70;;;;;;5030847;28;20126;-74
2024/03/03 00:05:53;;;;;;;7.10;6.15;;;5.00;60.70;;;;;;5031321;28;20099;-75
2024/03/03 00:08:38;;;;;;;6.57;5.88;;;5.00;60.70;;;;;;5036133;28;20040;-74
2024/03/03 00:11:23;;;;;;;7.65;5.82;;;5.00;60.70;;;;;;5026683;28;20494;-74
2024/03/03 00:14:07;;;;;;;7.50;5.82;;;5.00;60.70;;;;;;5033790;28;20559;-74
2024/03/03 00:16:52;;;;;;;7.13;6.40;;;5.00;60.80;;;;;;5036056;28;20102;-74
2024/03/03 00:19:37;;;;;;;7.35;6.22;;;5.00;60.80;;;;;;5040901;28;20047;-75
2024/03/03 00:22:21;;;;;;;7.72;5.80;;;5.00;60.80;;;;;;5029984;28;20500;-76
2024/03/03 00:25:06;;;;;;;8.07;5.82;;;5.00;60.80;;;;;;5024840;28;20102;-75
2024/03/03 00:27:51;;;;;;;6.55;5.90;;;5.00;60.80;;;;;;5021909;28;20547;-76
2024/03/03 00:30:36;;;;;;;7.68;6.50;;;5.00;60.70;;;;;;5038259;28;20032;-75
2024/03/03 00:33:21;;;;;;;6.88;5.72;;;5.00;60.70;;;;;;5039900;28;20099;-76
2024/03/03 00:36:08;;;;;;;7.25;6.38;;;4.90;60.60;;;;;;5040586;28;20392;-76
2024/03/03 00:38:53;;;;;;;8.57;6.53;;;4.90;61.10;;;;;;5043171;28;20306;-75
2024/03/03 00:41:38;;;;;;;6.47;5.57;;;5.00;60.80;;;;;;5036626;28;20124;-76
2024/03/03 00:44:22;;;;;;;8.10;6.45;;;4.90;60.60;;;;;;5024734;28;20095;-76
2024/03/03 00:47:07;;;;;;;7.47;6.07;;;4.90;60.70;;;;;;5037636;28;20072;-75
2024/03/03 00:49:52;;;;;;;7.05;6.32;;;4.90;60.70;;;;;;5036524;28;20535;-76
2024/03/03 00:52:36;;;;;;;6.05;5.28;;;4.90;60.70;;;;;;5025884;28;20051;-75
2024/03/03 00:55:22;;;;;;;6.20;5.50;;;4.90;60.70;;;;;;5023210;28;20603;-76
2024/03/03 00:58:07;;;;;;;6.15;5.55;;;4.90;60.70;;;;;;5036625;28;20488;-76
2024/03/03 01:00:52;;;;;;;6.03;5.40;;;4.90;60.70;;;;;;5035124;28;20044;-75
2024/03/03 01:03:38;;;;;;;6.15;4.68;;;4.90;60.70;;;;;;5040506;28;20503;-76
2024/03/03 01:06:23;;;;;;;6.45;4.90;;;4.90;60.70;;;;;;5028926;28;20454;-75
2024/03/03 01:09:08;;;;;;;5.95;5.25;;;4.90;60.80;;;;;;5041178;28;20070;-75
2024/03/03 01:11:53;;;;;;;6.07;5.22;;;4.90;60.70;;;;;;5039294;28;20115;-74
2024/03/03 01:14:38;;;;;;;6.18;4.78;;;4.80;60.50;;;;;;5039142;28;20389;-73
2024/03/03 01:17:23;;;;;;;6.10;4.47;;;4.80;60.60;;;;;;5035583;28;20124;-74
2024/03/03 01:20:08;;;;;;;5.57;4.53;;;4.80;60.60;;;;;;5032104;28;20165;-74
2024/03/03 01:22:52;;;;;;;5.20;4.50;;;4.80;60.60;;;;;;5040493;28;20067;-74
2024/03/03 01:25:37;;;;;;;5.88;4.38;;;4.80;60.70;;;;;;5039452;28;20182;-74
2024/03/03 01:28:21;;;;;;;5.65;4.13;;;4.80;60.70;;;;;;5028705;28;20188;-74
2024/03/03 01:31:07;;;;;;;5.82;4.07;;;4.70;60.50;;;;;;5033780;28;20068;-75
2024/03/03 01:33:51;;;;;;;4.50;3.80;;;4.80;60.70;;;;;;5028564;28;20060;-74
2024/03/03 01:36:36;;;;;;;4.80;3.60;;;4.80;60.70;;;;;;5022174;28;20137;-74
2024/03/03 01:39:21;;;;;;;5.78;4.28;;;4.80;60.70;;;;;;5021739;28;20087;-74
2024/03/03 01:42:05;;;;;;;5.35;4.20;;;4.80;60.70;;;;;;5028740;28;20071;-74
2024/03/03 01:44:50;;;;;;;5.25;4.32;;;4.80;60.70;;;;;;5025853;28;20048;-74
2024/03/03 01:47:37;;;;;;;4.90;3.95;;;4.80;60.70;;;;;;5024662;28;20114;-74
2024/03/03 01:50:24;;;;;;;5.85;3.88;;;4.80;60.70;;;;;;5033220;28;20128;-73
2024/03/03 01:53:10;;;;;;;4.45;3.53;;;4.80;61.20;;;;;;5022528;28;20068;-74
2024/03/03 01:55:55;;;;;;;4.88;3.42;;;4.80;60.70;;;;;;5032723;28;20544;-74
2024/03/03 01:58:41;;;;;;;5.40;4.00;;;4.80;60.80;;;;;;5033271;28;20055;-74
2024/03/03 02:01:29;;;;;;;4.63;3.17;;;4.70;60.60;;;;;;5039216;28;20044;-76
2024/03/03 02:04:14;;;;;;;7.15;4.20;;;4.70;60.60;;;;;;5033417;28;20483;-76
2024/03/03 02:07:00;;;;;;;4.40;3.30;;;4.70;60.60;;;;;;5033913;28;20071;-75
2024/03/03 02:09:45;;;;;;;4.10;3.22;;;4.70;60.60;;;;;;5030378;28;20537;-76
2024/03/03 02:12:29;;;;;;;4.65;3.50;;;4.70;60.60;;;;;;5027866;28;20334;-75
2024/03/03 02:15:15;;;;;;;6.43;3.70;;;4.70;60.70;;;;;;5028720;28;20091;-76
2024/03/03 02:17:59;;;;;;;3.83;3.05;;;4.70;60.70;;;;;;5022190;28;20107;-74
2024/03/03 02:20:45;;;;;;;4.72;3.03;;;4.70;60.70;;;;;;5033908;28;20051;-73
2024/03/03 02:23:29;;;;;;;6.38;3.63;;;4.70;60.70;;;;;;5035527;28;20540;-74
2024/03/03 02:26:20;;;;;;;3.05;2.75;;;4.70;60.70;;;;;;5024182;28;20091;-73
2024/03/03 02:29:05;;;;;;;3.30;2.88;;;4.70;60.70;;;;;;5021977;28;20094;-74
2024/03/03 02:31:49;;;;;;;3.97;3.15;;;4.70;60.70;;;;;;5037445;28;20045;-74
2024/03/03 02:34:33;;;;;;;4.72;2.85;;;4.70;60.70;;;;;;5031482;28;20048;-74
2024/03/03 02:37:18;;;;;;;6.70;3.47;;;4.70;60.70;;;;;;5025705;28;20037;-74
2024/03/03 02:40:03;;;;;;;4.38;3.30;;;4.70;60.70;;;;;;5027882;28;20488;-73
2024/03/03 02:42:48;;;;;;;3.97;2.95;;;4.70;60.70;;;;;;5026315;28;20499;-73
2024/03/03 02:45:32;;;;;;;3.25;2.95;;;4.70;60.70;;;;;;5016658;28;20056;-73
2024/03/03 02:48:18;;;;;;;3.83;3.42;;;4.60;60.50;;;;;;5049463;28;20044;-73
2024/03/03 02:51:03;;;;;;;4.88;3.42;;;4.70;60.70;;;;;;5032192;28;20691;-76
2024/03/03 02:53:48;;;;;;;4.80;3.28;;;4.60;60.50;;;;;;5038534;28;20062;-76
2024/03/03 02:56:32;;;;;;;3.50;3.17;;;4.60;60.50;;;;;;5038064;28;20060;-75
2024/03/03 02:59:17;;;;;;;3.72;3.15;;;4.60;60.60;;;;;;5041815;28;20404;-74
2024/03/03 03:02:01;;;;;;;5.50;3.10;;;4.60;60.60;;;;;;5044906;28;20060;-73
2024/03/03 03:04:46;;;;;;;3.42;3.13;;;4.50;60.40;;;;;;5034658;28;20585;-74
2024/03/03 03:07:30;;;;;;;4.88;2.95;;;4.50;60.40;;;;;;5043829;28;20036;-74
2024/03/03 03:10:15;;;;;;;3.28;2.85;;;4.50;60.50;;;;;;5043617;28;20098;-74
2024/03/03 03:13:00;;;;;;;3.72;3.20;;;4.40;60.30;;;;;;5021027;28;20087;-74
2024/03/03 03:15:45;;;;;;;3.10;2.70;;;4.40;60.30;;;;;;5045221;28;20116;-74
2024/03/03 03:18:29;;;;;;;4.30;3.13;;;4.40;60.40;;;;;;5041774;28;20119;-73
2024/03/03 03:21:15;;;;;;;4.82;3.45;;;4.30;60.20;;;;;;5043931;28;20154;-74
2024/03/03 03:23:59;;;;;;;3.78;2.78;;;4.30;60.20;;;;;;5029491;28;20094;-73
2024/03/03 03:26:44;;;;;;;3.45;2.90;;;4.30;60.30;;;;;;5044381;28;20095;-74
2024/03/03 03:29:29;;;;;;;3.67;2.97;;;4.20;60.10;;;;;;5043701;28;20059;-74
2024/03/03 03:32:14;;;;;;;2.97;2.75;;;4.20;60.20;;;;;;5032858;28;20075;-74
2024/03/03 03:34:59;;;;;;;3.10;2.80;;;4.20;60.20;;;;;;5032188;28;20171;-74
2024/03/03 03:37:44;;;;;;;4.55;3.38;;;4.10;60.00;;;;;;5043544;28;20087;-74
2024/03/03 03:40:29;;;;;;;4.60;2.97;;;4.20;60.30;;;;;;5036485;28;20087;-73
2024/03/03 03:43:13;;;;;;;3.17;2.88;;;4.10;60.10;;;;;;5047327;28;20079;-74
2024/03/03 03:45:58;;;;;;;3.67;2.65;;;4.10;60.10;;;;;;5038446;28;20396;-73
2024/03/03 03:48:43;;;;;;;3.65;3.28;;;4.10;60.10;;;;;;5049889;28;20044;-74
2024/03/03 03:51:27;;;;;;;3.83;3.42;;;4.00;59.90;;;;;;5045451;28;20522;-74
2024/03/03 03:54:14;;;;;;;3.78;3.28;;;4.10;60.10;;;;;;5047594;28;20056;-73
2024/03/03 03:56:59;;;;;;;4.05;3.50;;;4.00;59.90;;;;;;5040800;28;20591;-73
2024/03/03 03:59:44;;;;;;;3.35;3.05;;;4.00;59.90;;;;;;5043608;28;20043;-75
2024/03/03 04:02:29;;;;;;;4.40;2.95;;;4.00;60.00;;;;;;5033308;28;20765;-75
2024/03/03 04:05:14;;;;;;;3.47;3.17;;;3.90;60.30;;;;;;5048314;28;20980;-76
2024/03/03 04:07:59;;;;;;;4.25;3.25;;;3.90;59.80;;;;;;5037967;28;20032;-73
2024/03/03 04:10:44;;;;;;;3.60;3.13;;;3.90;59.90;;;;;;5045089;28;20534;-73
2024/03/03 04:13:29;;;;;;;3.75;3.22;;;3.90;59.90;;;;;;5043147;28;20048;-73
2024/03/03 04:16:14;;;;;;;5.40;3.38;;;3.80;59.70;;;;;;5035775;28;20064;-74
2024/03/03 04:18:58;;;;;;;4.68;2.80;;;3.80;59.80;;;;;;5048710;28;20099;-73
2024/03/03 04:21:44;;;;;;;4.03;3.20;;;3.80;59.80;;;;;;5047330;28;20094;-73
2024/03/03 04:24:28;;;;;;;3.35;2.88;;;3.70;59.60;;;;;;5036801;28;20120;-74
2024/03/03 04:27:13;;;;;;;3.88;3.40;;;3.70;59.70;;;;;;5039934;28;20594;-73
2024/03/03 04:29:58;;;;;;;4.38;3.10;;;3.70;59.70;;;;;;5031973;28;20098;-73
2024/03/03 04:32:43;;;;;;;5.32;3.42;;;3.70;59.70;;;;;;5044471;28;20064;-74
2024/03/03 04:35:27;;;;;;;3.65;3.05;;;3.70;59.70;;;;;;5046428;28;20572;-73
2024/03/03 04:38:12;;;;;;;5.05;3.30;;;3.60;59.60;;;;;;5047355;28;20081;-73
2024/03/03 04:40:57;;;;;;;4.25;3.10;;;3.60;59.50;;;;;;5047776;28;20121;-74
2024/03/03 04:43:42;;;;;;;4.20;2.88;;;3.60;59.50;;;;;;5043779;28;20060;-73
2024/03/03 04:46:27;;;;;;;4.35;3.30;;;3.60;59.50;;;;;;5036619;28;20554;-73
2024/03/03 04:49:12;;;;;;;4.47;3.20;;;3.60;59.50;;;;;;5046176;28;20044;-74
2024/03/03 04:51:56;;;;;;;4.32;3.00;;;3.60;59.60;;;;;;5030110;28;20608;-73
2024/03/03 04:54:41;;;;;;;5.35;3.40;;;3.50;59.40;;;;;;5046651;28;20044;-74
2024/03/03 04:57:26;;;;;;;4.63;3.33;;;3.60;59.60;;;;;;5042346;28;20059;-74
2024/03/03 05:00:11;;;;;;;2.88;2.60;;;3.50;59.40;;;;;;5039747;28;20083;-73
2024/03/03 05:02:55;;;;;;;3.78;3.08;;;3.50;59.40;;;;;;5042704;28;20132;-73
2024/03/03 05:05:40;;;;;;;4.05;2.92;;;3.50;59.40;;;;;;5038232;28;20064;-73
2024/03/03 05:08:24;;;;;;;3.40;2.67;;;3.50;59.50;;;;;;5048410;28;20533;-74
2024/03/03 05:11:09;;;;;;;3.40;2.90;;;3.40;59.30;;;;;;5040547;28;20065;-74
2024/03/03 05:13:54;;;;;;;3.78;2.92;;;3.40;59.30;;;;;;5057969;28;20119;-74
2024/03/03 05:16:38;;;;;;;4.18;3.08;;;3.40;59.30;;;;;;5047045;28;20443;-73
2024/03/03 05:19:23;;;;;;;4.57;3.05;;;3.40;59.40;;;;;;5030602;28;20100;-73
2024/03/03 05:22:07;;;;;;;3.33;3.03;;;3.40;59.40;;;;;;5044401;28;20390;-73
2024/03/03 05:24:52;;;;;;;3.83;2.90;;;3.30;59.20;;;;;;5045984;28;20400;-74
2024/03/03 05:27:38;;;;;;;4.55;2.90;;;3.40;59.40;;;;;;5039224;28;20044;-76
2024/03/03 05:30:23;;;;;;;5.30;2.88;;;3.30;59.20;;;;;;5041876;28;20055;-75
2024/03/03 05:33:08;;;;;;;2.58;2.33;;;3.30;59.30;;;;;;5034083;28;20056;-74
2024/03/03 05:35:52;;;;;;;4.63;3.20;;;3.30;59.30;;;;;;5032278;28;20153;-76
2024/03/03 05:38:39;;;;;;;3.75;2.95;;;3.30;59.30;;;;;;5046669;28;20100;-76
2024/03/03 05:41:28;;;;;;;4.90;2.88;;;3.30;59.30;;;;;;5047164;28;20136;-78
2024/03/03 05:44:12;;;;;;;3.15;2.85;;;3.30;59.30;;;;;;5041416;28;20098;-78
2024/03/03 05:46:57;;;;;;;2.88;2.58;;;3.20;59.10;;;;;;5037391;28;20066;-76
2024/03/03 05:49:41;;;;;;;3.83;2.83;;;3.20;59.10;;;;;;5039507;28;20133;-76
2024/03/03 05:52:26;;;;;;;5.30;2.67;;;3.20;59.10;;;;;;5039312;28;20412;-77
2024/03/03 05:55:11;;;;;;;3.53;3.13;;;3.20;59.10;;;;;;5035730;28;20603;-75
2024/03/03 05:57:55;;;;;;;3.38;2.95;;;3.20;59.10;;;;;;5037299;28;20553;-74
2024/03/03 06:00:40;;;;;;;2.92;2.65;;;3.10;58.90;;;;;;5041039;28;20048;-76
2024/03/03 06:03:25;;;;;;;3.75;3.08;;;3.10;59.50;;;;;;5037366;28;20122;-75
2024/03/03 06:06:10;;;;;;;4.60;3.38;;;3.10;59.00;;;;;;5034064;28;20082;-75
2024/03/03 06:08:54;;;;;;;3.65;3.03;;;3.10;59.00;;;;;;5040268;28;20462;-76
2024/03/03 06:11:42;;;;;;;4.63;3.28;;;3.10;59.00;;;;;;5042443;28;20545;-74
2024/03/03 06:14:27;;;;;;;3.70;2.88;;;3.10;59.00;;;;;;5035312;28;20131;-74
2024/03/03 06:17:12;;;;;;;3.58;3.25;;;3.10;59.00;;;;;;5042535;28;20415;-74
2024/03/03 06:19:56;;;;;;;5.03;3.63;;;3.10;59.00;;;;;;5024896;28;20052;-75
2024/03/03 06:22:41;;;;;;;4.72;2.90;;;3.10;59.00;;;;;;5032988;28;20511;-74
2024/03/03 06:25:25;;;;;;;3.65;3.13;;;3.00;58.80;;;;;;5043637;28;20885;-74
2024/03/03 06:28:10;;;;;;;3.88;2.78;;;3.00;58.80;;;;;;5047755;28;20040;-73
2024/03/03 06:30:54;;;;;;;4.00;2.92;;;3.00;58.80;;;;;;5047746;28;20167;-74
2024/03/03 06:33:39;;;;;;;3.95;2.90;;;3.00;58.80;;;;;;5037633;28;20110;-75
2024/03/03 06:36:24;;;;;;;3.78;3.13;;;3.00;58.80;;;;;;5033333;28;20048;-75
2024/03/03 06:39:12;;;;;;;4.35;2.65;;;3.00;58.80;;;;;;5036266;28;20040;-74
2024/03/03 06:41:56;;;;;;;3.38;2.85;;;3.00;58.80;;;;;;5035189;28;20420;-74
2024/03/03 06:44:42;;;;;;;3.05;2.47;;;3.00;58.80;;;;;;5038181;28;20086;-74
2024/03/03 06:47:29;;;;;;;3.42;2.83;;;3.00;58.80;;;;;;5039588;28;20052;-74
2024/03/03 06:50:14;;;;;;;3.88;2.90;;;3.00;58.80;;;;;;5032037;28;20075;-74
2024/03/03 06:52:58;;;;;;;4.40;3.50;;;3.00;58.80;;;;;;5035028;28;20071;-74
2024/03/03 06:55:42;;;;;;;4.20;2.88;;;2.90;58.60;;;;;;5031878;28;20147;-76
2024/03/03 06:58:27;;;;;;;6.20;3.30;;;2.90;58.70;;;;;;5020368;28;20049;-75
2024/03/03 07:01:12;;;;;;;3.50;3.05;;;2.90;58.60;;;;;;5036807;28;20121;-76
2024/03/03 07:04:29;;;;;;;4.70;3.70;;;2.90;58.70;;;;;;5034419;28;20404;-76
2024/03/03 07:07:08;;;;;;;4.88;4.00;;;2.90;58.70;;;;;;5032586;28;20029;-76
2024/03/03 07:09:56;;;;;;;4.93;3.15;;;2.90;58.70;;;;;;5031369;28;20112;-75
2024/03/03 07:12:40;;;;;;;4.45;3.13;;;2.90;58.70;;;;;;5030817;28;20064;-75
2024/03/03 07:15:25;;;;;;;3.90;3.25;;;2.90;58.70;;;;;;5039317;28;20693;-76
2024/03/03 07:18:09;;;;;;;3.78;3.38;;;2.90;58.70;;;;;;5044487;28;20102;-76
2024/03/03 07:20:54;;;;;;;4.05;3.20;;;2.90;58.70;;;;;;5033117;28;20047;-75
2024/03/03 07:23:39;;;;;;;5.00;3.78;;;2.90;58.70;;;;;;5040619;28;20036;-76
2024/03/03 07:26:24;;;;;;;4.00;3.50;;;2.90;58.70;;;;;;5017386;28;20036;-74
2024/03/03 07:29:08;;;;;;;6.20;3.75;;;2.90;58.60;;;;;;5033945;28;20116;-74
2024/03/03 07:31:52;;;;;;;3.85;3.45;;;2.90;58.60;;;;;;5042001;28;20465;-75
2024/03/03 07:34:38;;;;;;;7.95;4.28;;;2.90;58.60;;;;;;5029019;28;20051;-74
2024/03/03 07:37:22;;;;;;;4.07;3.42;;;2.90;58.60;;;;;;5040101;28;20162;-74
2024/03/03 07:40:08;;;;;;;5.40;3.28;;;3.00;58.70;;;;;;5028373;28;20059;-74
2024/03/03 07:42:52;;;;;;;5.25;4.30;;;3.00;58.70;;;;;;5038704;28;20091;-73
2024/03/03 07:45:38;;;;;;;5.85;4.30;;;3.00;58.60;;;;;;5037419;28;20071;-74
2024/03/03 07:48:23;;;;;;;4.15;3.75;;;3.10;58.80;;;;;;5019219;28;20047;-73
2024/03/03 07:51:07;;;;;;;5.07;4.05;;;3.10;58.80;;;;;;5025693;28;20534;-74
2024/03/03 07:53:52;;;;;;;4.75;4.07;;;3.10;58.70;;;;;;5032913;28;20122;-74
2024/03/03 07:56:37;;;;;;;4.63;3.33;;;3.10;58.60;;;;;;5040347;28;20036;-74
2024/03/03 07:59:21;;;;;;;6.07;4.40;;;3.10;58.70;;;;;;5038539;28;20399;-74
2024/03/03 08:02:06;;;;;;;6.07;4.32;;;3.20;59.10;;;;;;5037700;28;20071;-75
2024/03/03 08:04:53;;;;;;;5.55;4.43;;;3.30;59.30;;;;;;5032862;28;20059;-74
2024/03/03 08:07:37;;;;;;;5.43;4.55;;;3.30;59.30;;;;;;5037830;28;20036;-73
2024/03/03 08:10:22;;;;;;;6.82;4.22;;;3.50;59.70;;;;;;5032117;28;20071;-75
2024/03/03 08:13:06;;;;;;;5.65;4.03;;;3.50;59.70;;;;;;5032924;28;20429;-74
2024/03/03 08:15:51;;;;;;;6.80;4.25;;;3.50;59.60;;;;;;5029301;28;20095;-75
2024/03/03 08:18:36;;;;;;;5.97;4.03;;;3.60;59.80;;;;;;5039693;28;20051;-75
2024/03/03 08:21:21;;;;;;;4.82;3.95;;;3.60;59.80;;;;;;5037185;28;20090;-75
2024/03/03 08:24:06;;;;;;;5.38;4.32;;;3.60;59.80;;;;;;5039859;28;20087;-75
2024/03/03 08:26:50;;;;;;;4.50;3.70;;;3.60;59.80;;;;;;5030188;28;20123;-75
2024/03/03 08:29:34;;;;;;;4.80;4.38;;;3.60;59.80;;;;;;5032893;28;20049;-75
2024/03/03 08:32:19;;;;;;;6.57;4.47;;;3.70;60.00;;;;;;5041252;28;20068;-75
2024/03/03 08:35:05;;;;;;;5.93;4.22;;;3.70;60.00;;;;;;5034574;28;20048;-75
2024/03/03 08:37:49;;;;;;;5.55;4.00;;;3.70;60.00;;;;;;5032436;28;20040;-75
2024/03/03 08:40:33;;;;;;;6.03;5.07;;;3.70;59.90;;;;;;5025811;28;20047;-75
2024/03/03 08:43:18;;;;;;;5.97;4.70;;;3.80;60.10;;;;;;5035985;28;20051;-72
2024/03/03 08:46:02;;;;;;;6.47;4.93;;;3.80;60.10;;;;;;5029091;28;20048;-72
2024/03/03 08:48:47;;;;;;;5.18;4.60;;;3.80;60.00;;;;;;5038369;28;20075;-73
2024/03/03 08:51:37;;;;;;;5.20;4.03;;;3.90;60.20;;;;;;5029679;28;20098;-73
2024/03/03 08:54:21;;;;;;;5.32;4.80;;;3.90;60.20;;;;;;5037024;28;20051;-73
2024/03/03 08:57:06;;;;;;;5.55;4.25;;;3.90;60.10;;;;;;5037870;28;20524;-73
2024/03/03 08:59:51;;;;;;;5.57;4.35;;;4.00;60.30;;;;;;5031058;28;20048;-75
2024/03/03 09:02:35;;;;;;;6.82;4.75;;;4.00;60.20;;;;;;5038515;28;20098;-75
2024/03/03 09:05:20;;;;;;;4.85;4.32;;;4.00;60.20;;;;;;5032238;28;20157;-75
2024/03/03 09:08:05;;;;;;;7.05;5.03;;;4.00;60.20;;;;;;5028972;28;20071;-74
2024/03/03 09:10:56;;;;;;;6.32;4.72;;;4.10;60.30;;;;;;5034282;28;20084;-75
2024/03/03 09:13:41;;;;;;;6.30;5.22;;;4.10;60.30;;;;;;5036527;28;20692;-75
2024/03/03 09:16:26;;;;;;;5.18;4.10;;;4.20;60.50;;;;;;5032057;28;20134;-76
2024/03/03 09:19:10;;;;;;;7.18;5.25;;;4.20;60.40;;;;;;5040316;28;20553;-73
2024/03/03 09:21:54;;;;;;;5.97;5.15;;;4.30;61.10;;;;;;5040252;28;20392;-73
2024/03/03 09:24:46;;;;;;;6.78;5.22;;;4.30;60.50;;;;;;5038189;28;20032;-73
2024/03/03 09:27:31;;;;;;;6.90;4.95;;;4.30;60.60;;;;;;5039803;28;20171;-73
2024/03/03 09:30:16;;;;;;;8.07;5.50;;;4.40;60.70;;;;;;5033519;28;20618;-76
2024/03/03 09:33:00;;;;;;;6.40;5.10;;;4.40;60.60;;;;;;5033128;28;20088;-75
2024/03/03 09:35:44;;;;;;;6.60;5.95;;;4.40;60.60;;;;;;5032339;28;20041;-76
2024/03/03 09:38:30;;;;;;;5.85;5.28;;;4.50;60.70;;;;;;5034156;28;20045;-76
2024/03/03 09:41:20;;;;;;;5.90;4.97;;;4.50;60.70;;;;;;5032126;28;20442;-76
2024/03/03 09:44:10;;;;;;;5.28;4.80;;;4.60;60.80;;;;;;5033996;28;20044;-75
2024/03/03 09:46:57;;;;;;;7.05;5.15;;;4.60;60.80;;;;;;5034344;28;20546;-76
2024/03/03 09:49:43;;;;;;;6.75;5.45;;;4.60;60.80;;;;;;5032521;28;20047;-76
2024/03/03 09:52:30;;;;;;;6.93;5.85;;;4.70;60.90;;;;;;5023113;28;20078;-73
2024/03/03 09:55:15;;;;;;;6.78;6.05;;;4.70;60.90;;;;;;5035456;28;20040;-76
2024/03/03 09:57:59;;;;;;;7.25;5.78;;;4.80;61.00;;;;;;5031787;28;20051;-73
2024/03/03 10:00:44;;;;;;;13.10;6.82;;;4.80;61.00;;;;;;5034512;28;20314;-74
2024/03/03 10:03:31;;;;;;;7.70;6.05;;;4.90;61.20;;;;;;5035672;28;20075;-74
2024/03/03 10:06:21;;;;;;;6.18;5.55;;;5.00;61.30;;;;;;5035172;28;20089;-74
2024/03/03 10:09:12;;;;;;;7.22;5.82;;;5.00;61.30;;;;;;5032245;28;20043;-77
2024/03/03 10:11:58;;;;;;;6.90;5.68;;;5.10;61.40;;;;;;5030358;28;20102;-76
2024/03/03 10:14:44;;;;;;;8.05;6.05;;;5.10;61.40;;;;;;5030903;28;20135;-75
2024/03/03 10:17:29;;;;;;;6.25;5.28;;;5.20;61.50;;;;;;5027277;28;20119;-75
2024/03/03 10:20:13;;;;;;;7.47;5.90;;;5.20;61.40;;;;;;5022441;28;20106;-76
2024/03/03 10:22:58;;;;;;;7.82;5.40;;;5.30;61.60;;;;;;5033962;28;20052;-75
2024/03/03 10:25:56;;;;;;;8.13;5.68;;;5.30;61.50;;;;;;5031896;28;20392;-75
2024/03/03 10:28:40;;;;;;;9.77;5.97;;;5.40;61.70;;;;;;5032524;28;20055;-74
2024/03/03 10:31:29;;;;;;;7.50;6.38;;;5.50;61.80;;;;;;5033991;28;20083;-75
2024/03/03 10:34:18;;;;;;;7.72;5.93;;;5.50;61.80;;;;;;5027306;28;20404;-75
2024/03/03 10:37:03;;;;;;;9.40;6.15;;;5.60;62.00;;;;;;5026625;28;20044;-75
2024/03/03 10:39:49;;;;;;;8.02;6.07;;;5.70;62.20;;;;;;5036575;28;20391;-74
2024/03/03 10:42:33;;;;;;;8.65;6.40;;;5.70;62.10;;;;;;5028222;28;20044;-75
2024/03/03 10:45:18;;;;;;;7.05;5.82;;;5.80;62.30;;;;;;5027952;28;20492;-74
2024/03/03 10:48:03;;;;;;;8.63;5.95;;;5.90;62.70;;;;;;5029687;28;20511;-77
2024/03/03 10:50:49;;;;;;;7.70;5.72;;;5.90;62.40;;;;;;5024727;28;20044;-74
2024/03/03 10:53:34;;;;;;;6.85;5.00;;;6.00;62.50;;;;;;5032203;28;20088;-76
2024/03/03 10:56:19;;;;;;;6.85;5.50;;;6.00;62.50;;;;;;5034577;28;20044;-74
2024/03/03 10:59:04;;;;;;;6.32;5.72;;;6.10;62.70;;;;;;5034812;28;20040;-74
2024/03/03 11:01:51;;;;;;;6.38;5.78;;;6.20;62.80;;;;;;5034414;28;20094;-76
2024/03/03 11:04:39;;;;;;;7.35;5.53;;;6.20;62.80;;;;;;5033717;28;20052;-75
2024/03/03 11:07:24;;;;;;;9.52;6.15;;;6.30;62.90;;;;;;5034646;28;20036;-75
2024/03/03 11:10:09;;;;;;;5.55;5.00;;;6.30;62.90;;;;;;5036060;28;20047;-74
2024/03/03 11:12:56;;;;;;;5.72;5.05;;;6.40;63.00;;;;;;5029362;28;20056;-75
2024/03/03 11:15:45;;;;;;;6.80;5.35;;;6.40;62.90;;;;;;5032957;28;20114;-75
2024/03/03 11:18:33;;;;;;;5.75;5.25;;;6.50;63.00;;;;;;5031498;28;20060;-76
2024/03/03 11:21:26;;;;;;;6.97;5.00;;;6.70;63.30;;;;;;5032237;28;20475;-74
2024/03/03 11:24:20;;;;;;;5.22;4.75;;;6.80;63.30;;;;;;5036374;28;20079;-74
2024/03/03 11:27:10;;;;;;;5.82;4.68;;;6.90;63.20;;;;;;5027449;28;20036;-75
2024/03/03 11:29:55;;;;;;;5.00;4.50;;;7.10;63.40;;;;;;5029434;28;20048;-74
2024/03/03 11:32:41;;;;;;;7.05;5.70;;;7.20;63.30;;;;;;5042641;28;20049;-75
2024/03/03 11:35:28;;;;;;;8.43;5.40;;;7.40;63.50;;;;;;5035964;28;20499;-74
2024/03/03 11:38:13;;;;;;;8.05;4.72;;;7.60;63.90;;;;;;5033889;28;20416;-76
2024/03/03 11:40:58;;;;;;;7.38;4.85;;;7.70;64.00;;;;;;5022264;28;20032;-74
2024/03/03 11:43:43;;;;;;;7.38;5.03;;;7.90;64.20;;;;;;5031638;28;20048;-75
2024/03/03 11:46:50;;;;;;;5.20;4.40;;;8.10;64.40;;;;;;5036680;28;20063;-74
2024/03/03 11:49:42;;;;;;;6.85;4.65;;;8.30;64.60;;;;;;5022820;28;20398;-75
2024/03/03 11:52:42;;;;;;;4.88;4.38;;;8.50;64.60;;;;;;5023529;28;20128;-75
2024/03/03 11:55:30;;;;;;;6.15;4.88;;;8.70;64.50;;;;;;5030989;28;20470;-74
2024/03/03 11:58:17;;;;;;;5.30;4.43;;;8.80;64.40;;;;;;5035205;28;20055;-75
2024/03/03 12:01:09;;;;;;;4.00;3.50;;;8.90;64.40;;;;;;5036583;28;20554;-75
2024/03/03 12:03:54;;;;;;;6.20;4.20;;;8.90;64.30;;;;;;5035966;28;20167;-74
2024/03/03 12:06:42;;;;;;;5.78;4.28;;;9.00;64.40;;;;;;5027430;28;20087;-74
2024/03/03 12:09:27;;;;;;;5.32;3.95;;;9.00;64.50;;;;;;5039544;28;20372;-73
2024/03/03 12:12:13;;;;;;;4.32;3.92;;;9.00;64.40;;;;;;5030317;28;20182;-77
2024/03/03 12:14:59;;;;;;;3.90;3.50;;;9.10;64.60;;;;;;5034231;28;20446;-76
2024/03/03 12:17:50;;;;;;;6.80;4.18;;;9.20;64.70;;;;;;5033844;28;20040;-76
2024/03/03 12:20:36;;;;;;;4.95;3.90;;;9.20;65.10;;;;;;5033935;28;20087;-76
2024/03/03 12:23:22;;;;;;;5.97;4.45;;;9.30;64.60;;;;;;5041071;28;20499;-76
2024/03/03 12:26:07;;;;;;;3.95;3.60;;;9.30;64.50;;;;;;5037609;28;20044;-76
2024/03/03 12:28:51;;;;;;;4.38;3.85;;;9.40;64.60;;;;;;5035425;28;20040;-76
2024/03/03 12:31:36;;;;;;;4.20;3.55;;;9.40;64.40;;;;;;5043831;28;20070;-76
2024/03/03 12:34:21;;;;;;;5.30;3.83;;;9.40;64.40;;;;;;5038842;28;20067;-76
2024/03/03 12:37:06;;;;;;;3.60;3.25;;;9.50;64.40;;;;;;5031875;28;20052;-76
2024/03/03 12:39:52;;;;;;;4.72;3.65;;;9.60;64.50;;;;;;5037187;28;20082;-76
2024/03/03 12:42:37;;;;;;;3.58;3.20;;;9.60;64.30;;;;;;5042548;28;20619;-76
2024/03/03 12:45:21;;;;;;;4.25;3.33;;;9.70;64.40;;;;;;5026653;28;20095;-75
2024/03/03 12:48:09;;;;;;;4.18;3.45;;;9.80;64.30;;;;;;5040789;28;20094;-75
2024/03/03 12:50:58;;;;;;;3.72;3.35;;;9.80;64.10;;;;;;5030171;28;20033;-75
2024/03/03 12:53:44;;;;;;;5.72;3.38;;;9.80;64.10;;;;;;5034169;28;20179;-75
2024/03/03 12:56:28;;;;;;;3.42;2.90;;;9.80;64.00;;;;;;5037014;28;20051;-75
2024/03/03 12:59:13;;;;;;;3.05;2.78;;;9.90;64.10;;;;;;5034180;28;20056;-75
2024/03/03 13:01:59;;;;;;;3.20;2.90;;;9.90;64.00;;;;;;5041211;28;20040;-75
2024/03/03 13:04:43;;;;;;;2.97;2.58;;;9.90;63.90;;;;;;5036516;28;20115;-75
2024/03/03 13:07:27;;;;;;;4.80;2.97;;;10.00;64.00;;;;;;5035582;28;20923;-76
2024/03/03 13:10:14;;;;;;;3.08;2.45;;;10.10;64.00;;;;;;5025814;28;20048;-74
2024/03/03 13:12:58;;;;;;;3.63;2.83;;;10.10;63.90;;;;;;5035771;28;20072;-74
2024/03/03 13:15:45;;;;;;;2.65;2.45;;;10.20;63.90;;;;;;5035393;28;20043;-76
2024/03/03 13:18:30;;;;;;;4.93;2.40;;;10.30;63.90;;;;;;5035583;28;20953;-76
2024/03/03 13:21:15;;;;;;;3.65;2.17;;;10.40;63.90;;;;;;5031408;28;20047;-77
2024/03/03 13:24:13;;;;;;;4.22;2.38;;;10.50;63.80;;;;;;5036660;28;20044;-76
2024/03/03 13:26:59;;;;;;;2.42;2.20;;;10.60;63.80;;;;;;5028225;28;20055;-76
2024/03/03 13:29:43;;;;;;;2.40;2.13;;;10.70;63.80;;;;;;5036876;28;20203;-75
2024/03/03 13:32:28;;;;;;;3.03;1.88;;;10.70;63.70;;;;;;5040184;28;20056;-74
2024/03/03 13:35:12;;;;;;;3.25;1.90;;;10.70;63.60;;;;;;5035787;28;20458;-74
2024/03/03 13:37:57;;;;;;;2.65;1.77;;;10.80;63.60;;;;;;5039419;28;20111;-74
2024/03/03 13:40:41;;;;;;;2.85;1.80;;;10.80;63.50;;;;;;5031557;28;20044;-74
2024/03/03 13:43:26;;;;;;;2.80;1.75;;;10.80;63.50;;;;;;5031007;28;20048;-74
2024/03/03 13:46:10;;;;;;;1.98;1.80;;;10.90;63.50;;;;;;5033642;28;20044;-74
2024/03/03 13:48:56;;;;;;;2.28;1.63;;;10.90;63.40;;;;;;5035543;28;20086;-75
2024/03/03 13:51:40;;;;;;;3.38;1.40;;;11.00;63.50;;;;;;5034647;28;20048;-73
2024/03/03 13:54:25;;;;;;;3.40;1.50;;;11.10;63.50;;;;;;5032808;28;20052;-73
2024/03/03 13:57:10;;;;;;;1.90;1.48;;;11.20;63.60;;;;;;5040090;28;20402;-74
2024/03/03 13:59:54;;;;;;;2.05;1.30;;;11.20;63.40;;;;;;5031891;28;20068;-74
2024/03/03 14:02:40;;;;;;;1.83;1.10;;;11.30;63.40;;;;;;5030039;28;20043;-75
2024/03/03 14:05:25;;;;;;;1.70;1.30;;;11.30;63.20;;;;;;5039486;28;20043;-75
2024/03/03 14:08:12;;;;;;;1.95;1.35;;;11.50;63.30;;;;;;5031934;28;20039;-75
2024/03/03 14:10:57;;;;;;;1.90;1.20;;;11.60;63.40;;;;;;5034417;28;20146;-75
2024/03/03 14:13:41;;;;;;;2.60;1.70;;;11.70;63.30;;;;;;5036014;28;20412;-75
2024/03/03 14:16:26;;;;;;;2.00;1.30;;;11.80;63.30;;;;;;5035925;28;20133;-76
2024/03/03 14:19:11;;;;;;;1.10;1.00;;;11.90;63.20;;;;;;5038146;28;20079;-74
2024/03/03 14:21:56;;;;;;;3.03;1.15;;;12.00;63.00;;;;;;5033684;28;20877;-74
2024/03/03 14:24:42;;;;;;;1.13;1.02;;;12.00;62.70;;;;;;5031325;28;20396;-74
2024/03/03 14:27:26;;;;;;;2.33;0.93;;;12.00;62.40;;;;;;5027775;28;20079;-74
2024/03/03 14:30:11;;;;;;;2.47;1.00;;;12.10;62.40;;;;;;5028395;28;20582;-75